DTTZ/TOE METAR and TAF weather

Enter ICAO airport designator
Station Type Date Time Source
DTTZ METAR 2019/12/13 01:00 UTC NOAA

DTTZ 130100Z 29009KT CAVOK 10/03 Q1013 NOSIG


Station Type Date Time Source
DTTZ Decoded METAR 2019/12/13 01:00 UTC NOAA

Tozeur, Tunisia (DTTZ) 33-55N 008-06E 93M
Dec 12, 2019 - 08:00 PM EST / 2019.12.13 0100 UTC
Wind: from the WNW (290 degrees) at 10 MPH (9 KT):0
Visibility: greater than 7 mile(s):0
Temperature: 50 F (10 C)
Dew Point: 37 F (3 C)
Relative Humidity: 61%
Pressure (altimeter): 29.91 in. Hg (1013 hPa)
ob: DTTZ 130100Z 29009KT CAVOK 10/03 Q1013 NOSIG
cycle: 1

Station Type Date Time Source
DTTZ TAF 2019/12/13 00:00 UTC NOAA

TAF DTTZ 122300Z 1300/1324 27010KT 9999 SCT033
TEMPO 1313/1317 27017G27KT 3000 SA

Example: see airport list